Time;durP1;ratioP1;P1;durP2;ratioP2;P2;SDS_P1;SDS_P2;PMS_P1;PMS_P2;Temp;Humidity;BMP_temperature;BMP_pressure;BME280_temperature;BME280_humidity;BME280_pressure;Samples;Min_cycle;Max_cycle;Signal;HPM_P1;HPM_P2
2022/08/14 00:00:07;;;;;;;;;7.00;7.00;;;;;29.94;23.03;100163.16;5037355;28;45314;-56
2022/08/14 00:02:33;;;;;;;;;8.40;7.20;;;;;29.94;22.67;100163.97;5038266;28;45738;-56
2022/08/14 00:04:58;;;;;;;;;6.75;6.75;;;;;29.96;23.45;100146.63;5037077;28;45318;-56
2022/08/14 00:07:24;;;;;;;;;6.00;6.00;;;;;29.90;23.49;100146.06;5036707;28;46016;-57
2022/08/14 00:09:49;;;;;;;;;6.25;6.25;;;;;29.85;23.26;100144.31;5036260;28;45352;-56
2022/08/14 00:12:15;;;;;;;;;6.25;6.00;;;;;29.74;23.76;100129.88;5036408;28;45259;-56
2022/08/14 00:14:40;;;;;;;;;4.25;3.50;;;;;29.78;23.50;100137.63;5036278;28;46450;-57
2022/08/14 00:17:06;;;;;;;;;5.50;5.50;;;;;29.77;23.59;100139.63;5037213;28;45369;-55
2022/08/14 00:19:31;;;;;;;;;5.00;5.00;;;;;29.76;23.54;100127.50;5037707;28;45314;-56
2022/08/14 00:21:57;;;;;;;;;6.25;6.25;;;;;29.65;22.89;100114.25;5037402;28;45410;-56
2022/08/14 00:24:22;;;;;;;;;5.00;5.00;;;;;29.67;23.00;100117.53;5037428;28;46034;-56
2022/08/14 00:26:48;;;;;;;;;3.75;3.75;;;;;29.58;23.05;100115.66;5037075;28;45456;-56
2022/08/14 00:29:13;;;;;;;;;7.25;5.50;;;;;29.36;23.00;100086.69;5035851;28;45440;-55
2022/08/14 00:31:39;;;;;;;;;5.00;5.00;;;;;29.44;23.69;100106.69;5036535;28;45610;-53
2022/08/14 00:34:04;;;;;;;;;5.00;5.00;;;;;29.38;23.26;100099.66;5036906;28;46493;-55
2022/08/14 00:36:30;;;;;;;;;3.50;3.50;;;;;29.42;23.65;100100.59;5035697;28;45404;-56
2022/08/14 00:38:55;;;;;;;;;4.00;4.00;;;;;29.39;24.22;100104.13;5036893;28;45285;-54
2022/08/14 00:41:21;;;;;;;;;8.00;5.00;;;;;29.26;23.78;100078.72;5035876;28;45648;-54
2022/08/14 00:43:46;;;;;;;;;3.25;3.25;;;;;29.33;23.95;100100.72;5037111;28;46438;-55
2022/08/14 00:46:12;;;;;;;;;5.00;5.00;;;;;29.31;23.77;100106.75;5019744;28;45597;-55
2022/08/14 00:48:38;;;;;;;;;4.25;4.25;;;;;29.26;23.98;100092.84;5003240;28;45458;-54
2022/08/14 00:51:06;;;;;;;;;4.20;4.20;;;;;29.08;23.63;100087.47;5017184;28;45246;-56
2022/08/14 00:53:31;;;;;;;;;4.00;4.00;;;;;29.12;23.72;100098.88;5036759;28;45930;-53
2022/08/14 00:55:57;;;;;;;;;4.00;4.00;;;;;29.16;24.33;100091.34;5036526;28;45472;-54
2022/08/14 00:58:31;;;;;;;;;5.00;5.00;;;;;28.99;24.13;100067.00;5037056;28;45344;-56
2022/08/14 01:01:03;;;;;;;;;3.60;3.20;;;;;28.98;24.21;100065.34;5035840;28;45459;-54
2022/08/14 01:03:28;;;;;;;;;5.00;5.00;;;;;29.09;24.34;100080.63;5036205;28;46956;-53
2022/08/14 01:05:54;;;;;;;;;3.25;3.25;;;;;29.15;24.29;100086.03;5035216;28;45201;-55
2022/08/14 01:08:29;;;;;;;;;4.75;3.75;;;;;28.90;24.49;100055.00;5036734;28;45261;-54
2022/08/14 01:10:55;;;;;;;;;4.60;4.60;;;;;28.77;24.35;100032.38;5036063;28;45305;-53
2022/08/14 01:13:26;;;;;;;;;5.00;5.00;;;;;29.01;24.28;100063.78;5036537;28;45700;-54
2022/08/14 01:15:55;;;;;;;;;5.80;4.80;;;;;29.04;24.50;100055.47;5036240;28;45459;-53
2022/08/14 01:21:06;;;;;;;;;4.40;4.40;;;;;28.90;24.66;100047.34;5036762;28;45250;-55
2022/08/14 01:23:33;;;;;;;;;4.00;4.00;;;;;28.76;24.98;100022.25;5036084;28;46268;-55
2022/08/14 01:25:59;;;;;;;;;3.60;3.60;;;;;28.94;24.83;100047.47;5034865;28;45586;-56
2022/08/14 01:28:30;;;;;;;;;6.00;6.00;;;;;28.82;24.78;100042.63;5051731;28;45409;-56
2022/08/14 01:30:56;;;;;;;;;5.60;5.20;;;;;28.80;25.33;100050.59;5036507;28;45251;-52
2022/08/14 01:33:28;;;;;;;;;4.00;4.00;;;;;28.76;25.35;100053.31;5034985;28;46812;-55
2022/08/14 01:35:56;;;;;;;;;4.00;4.00;;;;;28.63;25.41;100048.84;5036182;28;45186;-56
2022/08/14 01:38:33;;;;;;;;;4.00;4.00;;;;;28.64;25.36;100051.31;5036482;28;45578;-54
2022/08/14 01:41:05;;;;;;;;;6.80;6.80;;;;;28.65;25.31;100055.78;5035170;28;45916;-54
2022/08/14 01:43:30;;;;;;;;;6.60;4.60;;;;;28.68;24.83;100049.47;5035940;28;46175;-55
2022/08/14 01:45:59;;;;;;;;;7.00;5.75;;;;;28.73;25.04;100058.84;5034750;28;45420;-56
2022/08/14 01:48:29;;;;;;;;;6.80;5.40;;;;;28.71;25.32;100056.41;5036129;28;45356;-56
2022/08/14 01:50:55;;;;;;;;;3.00;3.00;;;;;28.55;24.96;100034.50;5036130;28;45570;-56
2022/08/14 01:53:21;;;;;;;;;5.60;5.60;;;;;28.54;25.50;100054.59;5017700;28;45700;-56
2022/08/14 01:55:50;;;;;;;;;4.00;4.00;;;;;28.46;25.84;100053.56;5035521;28;45392;-55
2022/08/14 01:58:16;;;;;;;;;3.80;3.00;;;;;28.27;25.40;100035.19;5035196;28;45360;-52
2022/08/14 02:00:41;;;;;;;;;5.00;5.00;;;;;28.35;25.87;100035.44;5034753;28;45543;-53
2022/08/14 02:03:07;;;;;;;;;6.50;4.00;;;;;28.46;25.61;100033.81;5006068;28;45622;-56
2022/08/14 02:05:33;;;;;;;;;5.00;5.00;;;;;28.37;25.60;100021.78;5035628;28;45473;-55
2022/08/14 02:07:59;;;;;;;;;6.40;5.40;;;;;28.27;26.18;100021.09;5034410;28;45402;-53
2022/08/14 02:10:27;;;;;;;;;5.00;5.00;;;;;28.27;25.81;100040.81;5036228;28;45246;-58
2022/08/14 02:12:55;;;;;;;;;5.00;4.00;;;;;28.28;26.07;100033.19;5035315;28;46166;-53
2022/08/14 02:15:20;;;;;;;;;5.00;5.00;;;;;28.23;26.09;100027.78;5035667;28;45376;-52
2022/08/14 02:17:47;;;;;;;;;5.00;5.00;;;;;28.32;26.12;100024.88;5035326;28;45380;-54
2022/08/14 02:20:12;;;;;;;;;4.80;4.80;;;;;28.38;26.18;100026.28;5018419;28;45637;-53
2022/08/14 02:22:38;;;;;;;;;5.75;5.00;;;;;28.15;26.00;99987.19;5035247;28;45628;-55
2022/08/14 02:25:04;;;;;;;;;5.00;5.00;;;;;28.28;25.78;100016.28;5035484;28;45231;-56
2022/08/14 02:27:29;;;;;;;;;5.25;4.75;;;;;28.21;26.34;100007.50;5035207;28;45390;-54
2022/08/14 02:29:55;;;;;;;;;5.25;5.00;;;;;28.26;26.24;100010.13;5034313;28;45662;-57
2022/08/14 02:32:20;;;;;;;;;4.25;3.25;;;;;28.01;25.95;99982.69;5033855;28;45685;-54
2022/08/14 02:34:46;;;;;;;;;3.00;3.00;;;;;28.05;25.98;99982.00;5034092;28;45305;-56
2022/08/14 02:37:11;;;;;;;;;3.25;3.25;;;;;28.03;26.35;100002.09;5035323;28;45342;-52
2022/08/14 02:39:40;;;;;;;;;4.50;4.00;;;;;28.07;26.41;100003.03;5035840;28;45479;-55
2022/08/14 02:42:07;;;;;;;;;6.00;6.00;;;;;27.91;26.57;100002.91;5033466;28;45756;-56
2022/08/14 02:44:33;;;;;;;;;5.00;5.00;;;;;27.71;26.74;99968.78;5035381;28;45217;-53
2022/08/14 02:46:59;;;;;;;;;4.80;4.40;;;;;27.76;26.62;99989.44;5035164;28;45416;-55
2022/08/14 02:49:27;;;;;;;;;5.00;5.00;;;;;27.87;26.74;99996.28;5034284;28;45415;-53
2022/08/14 02:51:54;;;;;;;;;4.40;4.40;;;;;27.87;26.89;99987.84;5050859;28;46880;-53
2022/08/14 02:54:21;;;;;;;;;4.60;4.60;;;;;27.86;26.63;99977.75;5034870;28;45451;-56
2022/08/14 02:56:47;;;;;;;;;4.40;4.40;;;;;27.70;26.68;99953.03;5035138;28;45409;-56
2022/08/14 02:59:13;;;;;;;;;4.00;4.00;;;;;27.91;26.60;99983.16;5035389;28;45480;-53
2022/08/14 03:01:39;;;;;;;;;5.25;5.25;;;;;27.83;26.64;99956.72;5034950;28;45681;-55
2022/08/14 03:04:04;;;;;;;;;4.00;4.00;;;;;27.96;26.62;99980.09;5034968;28;45372;-56
2022/08/14 03:06:30;;;;;;;;;5.75;5.75;;;;;28.01;26.45;99982.69;5034749;28;45160;-55
2022/08/14 03:08:58;;;;;;;;;4.00;4.00;;;;;28.01;26.35;99979.03;5050934;28;45305;-54
2022/08/14 03:11:23;;;;;;;;;5.60;5.40;;;;;27.86;26.79;99978.53;5034645;28;46438;-55
2022/08/14 03:13:50;;;;;;;;;4.00;4.00;;;;;27.83;26.86;99990.53;5033604;28;45433;-57
2022/08/14 03:16:20;;;;;;;;;4.60;4.60;;;;;27.79;26.63;99998.03;5033821;28;45272;-56
2022/08/14 03:18:47;;;;;;;;;4.00;4.00;;;;;27.76;26.83;99995.91;5033406;28;45574;-56
2022/08/14 03:21:15;;;;;;;;;4.80;4.80;;;;;27.62;27.04;99961.59;5034623;28;46485;-53
2022/08/14 03:23:42;;;;;;;;;4.00;4.00;;;;;27.78;26.86;99993.56;5033793;28;45459;-55
2022/08/14 03:26:08;;;;;;;;;4.20;4.20;;;;;27.83;26.95;99993.34;5033421;28;45339;-52
2022/08/14 03:28:34;;;;;;;;;5.80;5.00;;;;;27.90;26.39;99984.31;5035130;28;45614;-55
2022/08/14 03:30:59;;;;;;;;;5.00;4.00;;;;;27.87;26.95;99979.38;5034728;28;45616;-52
2022/08/14 03:33:26;;;;;;;;;5.25;5.25;;;;;27.68;26.43;99977.09;5014439;28;45362;-55
2022/08/14 03:35:51;;;;;;;;;4.00;4.00;;;;;27.56;26.97;99980.66;5020815;28;45203;-55
2022/08/14 03:38:17;;;;;;;;;3.50;3.50;;;;;27.55;27.17;99977.03;5038329;28;45324;-56
2022/08/14 03:40:43;;;;;;;;;4.25;4.25;;;;;27.51;26.99;99976.06;5037896;28;45818;-54
2022/08/14 03:43:09;;;;;;;;;6.00;4.00;;;;;27.53;27.30;99987.00;5037848;28;45437;-57
2022/08/14 03:45:35;;;;;;;;;4.75;4.75;;;;;27.36;27.45;99957.00;5038112;28;45294;-55
2022/08/14 03:48:22;;;;;;;;;6.20;5.00;;;;;27.56;27.15;99986.28;5038645;28;45482;-56
2022/08/14 03:50:50;;;;;;;;;5.00;4.60;;;;;27.39;27.25;99968.41;5038041;28;46271;-56
2022/08/14 03:53:17;;;;;;;;;5.20;5.20;;;;;27.53;27.21;99995.44;5037894;28;45333;-54
2022/08/14 03:55:43;;;;;;;;;7.60;7.60;;;;;27.57;27.40;100002.91;5036739;28;45518;-55
2022/08/14 03:58:09;;;;;;;;;4.50;4.00;;;;;27.64;27.09;100010.78;5038126;28;45439;-56
2022/08/14 04:00:35;;;;;;;;;5.00;3.80;;;;;27.71;26.70;100013.88;5037628;28;46597;-53
2022/08/14 04:03:03;;;;;;;;;5.40;5.40;;;;;27.62;26.98;100003.84;5037976;28;45298;-54
2022/08/14 04:05:28;;;;;;;;;5.00;4.80;;;;;27.64;26.83;100024.88;5037637;28;45247;-52
2022/08/14 04:07:54;;;;;;;;;5.00;5.00;;;;;27.51;27.46;100021.16;5037925;28;45312;-53
2022/08/14 04:10:20;;;;;;;;;6.00;6.00;;;;;27.33;27.43;100006.41;5037840;28;45316;-52
2022/08/14 04:12:46;;;;;;;;;4.40;4.20;;;;;27.52;27.47;100017.16;5035714;28;45259;-52
2022/08/14 04:15:13;;;;;;;;;6.25;5.25;;;;;27.56;27.39;100022.91;5038033;28;45528;-55
2022/08/14 04:17:41;;;;;;;;;4.40;4.40;;;;;27.56;27.08;100014.47;5037689;28;45464;-55
2022/08/14 04:20:08;;;;;;;;;4.20;4.20;;;;;27.61;27.29;100019.94;5037390;28;45881;-53
2022/08/14 04:22:34;;;;;;;;;4.00;4.00;;;;;27.56;26.99;100029.41;5037136;28;45469;-54
2022/08/14 04:25:00;;;;;;;;;5.00;4.50;;;;;27.45;27.39;100022.53;5036542;28;45322;-53
2022/08/14 04:27:26;;;;;;;;;5.25;5.25;;;;;27.43;27.60;100024.88;5037504;28;45678;-54
2022/08/14 04:29:51;;;;;;;;;5.00;5.00;;;;;27.16;27.76;99979.19;5037143;28;46016;-53
2022/08/14 04:32:18;;;;;;;;;4.00;4.00;;;;;27.27;27.41;100002.94;5037566;28;45546;-51
2022/08/14 04:34:43;;;;;;;;;5.00;5.00;;;;;27.11;27.82;99993.47;5037549;28;45431;-53
2022/08/14 04:45:22;;;;;;;;;6.00;4.40;;;;;27.13;27.58;99966.63;5036606;28;45464;-55
2022/08/14 04:50:34;;;;;;;;;5.80;4.60;;;;;27.24;27.68;99971.81;5022536;28;45445;-51
2022/08/14 04:53:00;;;;;;;;;5.00;5.00;;;;;27.16;27.30;99959.50;5036760;28;45423;-54
2022/08/14 04:55:26;;;;;;;;;5.20;4.40;;;;;27.24;27.61;99967.03;5036885;28;45429;-56
2022/08/14 04:57:51;;;;;;;;;3.50;3.50;;;;;27.23;27.59;99954.13;5037364;28;45459;-53
2022/08/14 05:00:17;;;;;;;;;5.25;4.25;;;;;27.22;27.71;99969.38;5037003;28;45552;-51
2022/08/14 05:02:42;;;;;;;;;4.00;4.00;;;;;27.20;27.72;99960.44;5037018;28;45448;-56
2022/08/14 05:05:08;;;;;;;;;5.00;5.00;;;;;27.22;27.54;99957.28;5036679;28;45370;-54
2022/08/14 05:07:33;;;;;;;;;4.00;4.00;;;;;27.22;27.87;99952.47;5036854;28;45348;-54
2022/08/14 05:09:58;;;;;;;;;4.25;4.25;;;;;26.96;27.44;99905.66;5035738;28;45718;-54
2022/08/14 05:12:24;;;;;;;;;3.25;3.25;;;;;27.26;27.62;99947.78;5036750;28;45323;-55
2022/08/14 05:14:49;;;;;;;;;4.25;4.25;;;;;27.20;27.99;99940.72;5036885;28;45312;-53
2022/08/14 05:17:15;;;;;;;;;3.00;3.00;;;;;27.21;28.08;99950.81;5037163;28;45338;-51
2022/08/14 05:19:40;;;;;;;;;5.00;5.00;;;;;27.20;28.01;99966.91;5036630;28;46435;-54
2022/08/14 05:22:06;;;;;;;;;6.25;5.25;;;;;27.15;27.84;99975.53;5036445;28;45343;-55
2022/08/14 05:24:32;;;;;;;;;4.00;4.00;;;;;27.13;28.21;99972.25;5036731;28;45412;-54
2022/08/14 05:26:58;;;;;;;;;4.75;4.75;;;;;27.13;28.09;99977.91;5037023;28;45283;-52
2022/08/14 05:29:24;;;;;;;;;5.50;4.25;;;;;27.10;28.42;99983.38;5036076;28;46031;-56
2022/08/14 05:31:50;;;;;;;;;5.20;5.20;;;;;26.80;28.48;99942.81;5036367;28;45416;-51
2022/08/14 05:34:16;;;;;;;;;4.75;4.75;;;;;26.97;28.31;99974.88;5036268;28;45372;-51
2022/08/14 05:36:41;;;;;;;;;4.25;4.25;;;;;26.89;28.22;99975.72;5037131;28;45459;-52
2022/08/14 05:39:07;;;;;;;;;4.75;4.75;;;;;26.78;28.77;99962.03;5036143;28;46964;-55
2022/08/14 05:41:33;;;;;;;;;6.50;5.75;;;;;26.77;28.41;99962.38;5036441;28;45376;-52
2022/08/14 05:43:59;;;;;;;;;3.60;3.60;;;;;26.72;28.68;99968.22;5036435;28;45365;-53
2022/08/14 05:46:24;;;;;;;;;6.00;5.00;;;;;26.77;28.77;99959.56;5035179;28;45404;-53
2022/08/14 05:48:52;;;;;;;;;4.75;4.75;;;;;26.78;28.66;99942.34;5036351;28;46317;-54
2022/08/14 05:51:17;;;;;;;;;6.20;6.20;;;;;26.66;28.69;99908.50;5036092;28;45433;-54
2022/08/14 05:53:43;;;;;;;;;6.00;4.75;;;;;26.84;28.68;99936.53;5036172;28;45625;-53
2022/08/14 05:56:08;;;;;;;;;4.50;4.00;;;;;26.73;28.46;99936.09;5036275;28;45464;-55
2022/08/14 05:58:34;;;;;;;;;5.50;4.50;;;;;26.70;29.06;99951.69;5035733;28;45987;-56
2022/08/14 06:00:59;;;;;;;;;5.00;5.00;;;;;26.75;29.04;99947.84;5036294;28;45403;-56
2022/08/14 06:03:25;;;;;;;;;6.00;6.00;;;;;26.75;28.90;99950.66;5035754;28;45336;-54
2022/08/14 06:05:53;;;;;;;;;4.25;4.25;;;;;26.59;28.96;99923.13;5036398;28;45438;-53
2022/08/14 06:08:23;;;;;;;;;6.00;6.00;;;;;26.58;29.18;99935.53;5035602;28;45510;-54
2022/08/14 06:10:49;;;;;;;;;3.60;3.60;;;;;26.65;29.03;99951.88;5036200;28;45708;-55
2022/08/14 06:13:15;;;;;;;;;7.40;6.00;;;;;26.47;29.39;99920.22;5036171;28;45310;-53
2022/08/14 06:15:41;;;;;;;;;4.25;4.25;;;;;26.57;29.24;99935.88;5036267;28;45705;-52
2022/08/14 06:18:07;;;;;;;;;5.75;5.75;;;;;26.70;29.16;99953.66;5034256;28;47261;-55
2022/08/14 06:20:32;;;;;;;;;5.50;5.00;;;;;26.68;29.04;99944.75;5034725;28;45939;-55
2022/08/14 06:22:58;;;;;;;;;5.75;5.75;;;;;26.56;29.22;99925.78;5035994;28;45343;-53
2022/08/14 06:25:24;;;;;;;;;6.50;4.75;;;;;26.58;29.30;99937.53;5035852;28;45622;-55
2022/08/14 06:27:49;;;;;;;;;5.75;5.75;;;;;26.61;29.34;99934.84;5035738;28;45326;-55
2022/08/14 06:30:20;;;;;;;;;4.00;4.00;;;;;26.60;29.28;99933.19;5035694;28;45373;-56
2022/08/14 06:32:46;;;;;;;;;4.00;4.00;;;;;26.59;29.49;99941.97;5034434;28;45399;-54
2022/08/14 06:35:13;;;;;;;;;4.75;4.75;;;;;26.52;29.75;99934.09;5034807;28;45309;-54
2022/08/14 06:37:46;;;;;;;;;4.00;4.00;;;;;26.52;29.38;99959.41;5035561;28;46529;-54
2022/08/14 06:40:13;;;;;;;;;4.60;4.60;;;;;26.36;29.50;99925.41;5000949;28;45882;-53
2022/08/14 06:42:39;;;;;;;;;4.60;4.60;;;;;26.36;29.98;99945.91;5035304;28;45314;-56
2022/08/14 06:45:05;;;;;;;;;8.20;7.00;;;;;26.37;30.14;99958.00;5035614;28;45548;-50
2022/08/14 06:47:39;;;;;;;;;9.20;8.00;;;;;26.39;30.02;99953.69;5035489;28;45435;-57
2022/08/14 06:50:06;;;;;;;;;10.40;9.60;;;;;26.26;30.09;99954.75;5018017;28;45500;-58
2022/08/14 06:52:31;;;;;;;;;8.80;8.20;;;;;26.23;30.25;99946.97;5035462;28;45263;-58
2022/08/14 06:54:57;;;;;;;;;8.50;8.50;;;;;26.43;29.87;99956.63;5035672;28;45421;-57
2022/08/14 06:57:23;;;;;;;;;5.00;5.00;;;;;26.58;29.98;99971.28;5035427;28;46954;-52
2022/08/14 06:59:48;;;;;;;;;7.00;7.00;;;;;26.59;29.78;99968.13;5034983;28;45441;-57
2022/08/14 07:07:43;;;;;;;;;5.60;5.00;;;;;26.66;29.48;99976.88;5034820;28;45766;-56
2022/08/14 07:10:08;;;;;;;;;4.40;4.40;;;;;26.60;29.71;99960.50;5037537;28;45424;-56
2022/08/14 07:12:34;;;;;;;;;6.25;4.75;;;;;26.76;29.63;99972.00;5037915;28;45328;-56
2022/08/14 07:15:00;;;;;;;;;5.00;5.00;;;;;26.80;29.41;99987.03;5038882;28;45604;-56
2022/08/14 07:17:26;;;;;;;;;4.75;4.00;;;;;26.86;29.69;99988.50;5037362;28;45836;-53
2022/08/14 07:19:51;;;;;;;;;6.00;6.00;;;;;26.88;29.53;99986.16;5038145;28;45328;-55
2022/08/14 07:22:17;;;;;;;;;6.00;6.00;;;;;26.74;29.74;99968.69;5038912;28;45876;-56
2022/08/14 07:24:43;;;;;;;;;7.00;7.00;;;;;26.89;30.07;99987.78;5037589;28;45600;-56
2022/08/14 07:27:08;;;;;;;;;4.75;4.50;;;;;26.91;29.71;99988.34;5037970;28;45558;-52
2022/08/14 07:29:33;;;;;;;;;5.00;5.00;;;;;26.93;29.93;99980.34;5038607;28;45327;-55
2022/08/14 07:31:59;;;;;;;;;5.00;5.00;;;;;26.85;29.77;99949.41;5038478;28;45403;-55
2022/08/14 07:34:24;;;;;;;;;4.75;4.75;;;;;27.05;29.75;99971.16;5038572;28;45516;-53
2022/08/14 07:36:51;;;;;;;;;7.00;6.00;;;;;27.14;29.49;99987.97;5038428;28;46715;-57
2022/08/14 07:39:16;;;;;;;;;6.60;5.20;;;;;27.09;29.65;99988.19;5038333;28;45430;-54
2022/08/14 07:41:43;;;;;;;;;7.00;7.00;;;;;27.14;29.74;99993.63;5038523;28;45367;-55
2022/08/14 07:44:10;;;;;;;;;5.60;5.60;;;;;27.23;29.50;99982.28;5031851;28;45328;-54
2022/08/14 07:46:36;;;;;;;;;6.00;5.20;;;;;27.11;29.51;99945.63;5031228;28;45843;-56
2022/08/14 07:49:02;;;;;;;;;5.60;5.00;;;;;27.23;28.96;99973.00;5035493;28;45523;-57
2022/08/14 07:51:27;;;;;;;;;4.25;4.25;;;;;26.93;29.61;99957.84;5038111;28;45317;-58
2022/08/14 07:53:54;;;;;;;;;4.75;4.75;;;;;26.95;29.40;99946.25;5038447;28;45533;-53
2022/08/14 07:56:19;;;;;;;;;4.00;4.00;;;;;27.06;28.95;99952.28;5037809;28;46539;-52
2022/08/14 07:58:45;;;;;;;;;6.25;5.75;;;;;27.03;29.13;99948.16;5038030;28;45321;-53
2022/08/14 08:01:10;;;;;;;;;6.00;6.00;;;;;26.71;29.26;99938.41;5019896;28;45818;-56
2022/08/14 08:03:37;;;;;;;;;5.50;5.50;;;;;26.71;29.48;99939.25;5037115;28;45620;-56
2022/08/14 08:06:02;;;;;;;;;5.20;4.20;;;;;26.82;29.54;99938.88;5037484;28;45931;-52
2022/08/14 08:08:28;;;;;;;;;6.75;4.50;;;;;26.93;29.62;99932.50;5036222;28;45267;-55
2022/08/14 08:10:59;;;;;;;;;5.60;5.60;;;;;27.12;29.36;99952.88;5038046;28;45345;-54
2022/08/14 08:13:25;;;;;;;;;6.40;6.40;;;;;26.97;29.68;99952.34;5037702;28;45385;-56
2022/08/14 08:15:58;;;;;;;;;1.00;1.00;;;;;27.01;29.90;99946.84;5036499;28;45431;-59
2022/08/14 08:18:23;;;;;;;;;6.00;5.20;;;;;27.17;30.18;99959.13;5037438;28;45416;-58
2022/08/14 08:20:51;;;;;;;;;6.00;6.00;;;;;27.17;29.86;99967.56;5037463;28;45263;-60
2022/08/14 08:23:17;;;;;;;;;7.00;7.00;;;;;27.18;30.30;99962.78;5037846;28;45299;-58
2022/08/14 08:25:44;;;;;;;;;6.60;6.00;;;;;27.27;30.43;99971.97;5035926;28;46945;-54
2022/08/14 08:28:11;;;;;;;;;7.60;5.40;;;;;27.27;30.44;99990.88;5037325;28;45432;-56
2022/08/14 08:30:38;;;;;;;;;8.00;5.00;;;;;27.26;30.96;99989.22;5037194;28;45435;-54
2022/08/14 08:33:04;;;;;;;;;4.40;4.40;;;;;27.02;30.77;99965.38;5037069;28;45415;-56
2022/08/14 08:35:34;;;;;;;;;8.00;7.40;;;;;27.28;31.30;99990.53;5035679;28;46896;-57
2022/08/14 08:38:02;;;;;;;;;7.20;7.20;;;;;27.40;31.12;99992.56;5034155;28;45338;-50
2022/08/14 08:40:30;;;;;;;;;5.60;5.00;;;;;27.55;31.72;99998.75;5035838;28;45388;-54
2022/08/14 08:42:56;;;;;;;;;7.00;5.80;;;;;27.42;32.86;99958.44;5036751;28;45539;-53
2022/08/14 08:45:22;;;;;;;;;6.50;5.50;;;;;26.99;33.48;99890.06;5056540;28;45938;-53
2022/08/14 08:47:49;;;;;;;;;6.75;6.75;;;;;27.59;34.43;99972.38;5055697;28;45337;-49
2022/08/14 08:50:18;;;;;;;;;7.60;6.00;;;;;27.44;34.11;99927.91;5003590;27;45423;-53
2022/08/14 08:52:50;;;;;;;;;6.00;6.00;;;;;27.57;34.91;99929.63;5036844;28;45434;-52
2022/08/14 08:55:23;;;;;;;;;9.00;6.20;;;;;27.80;34.47;99939.66;5036655;28;46712;-55
2022/08/14 08:57:56;;;;;;;;;5.00;5.00;;;;;27.71;34.19;99892.69;5036433;28;45407;-53
2022/08/14 09:00:21;;;;;;;;;8.20;7.00;;;;;27.99;34.29;99931.47;5035638;28;45361;-54
2022/08/14 09:02:58;;;;;;;;;6.25;6.25;;;;;28.08;34.60;99936.19;5036898;28;45637;-54
2022/08/14 09:05:24;;;;;;;;;7.80;6.00;;;;;28.05;34.82;99959.44;5036395;28;45555;-55
2022/08/14 09:07:49;;;;;;;;;8.80;6.00;;;;;28.16;34.51;99960.63;5036413;28;45392;-55
2022/08/14 09:10:15;;;;;;;;;5.75;4.50;;;;;28.13;34.45;99959.31;5036477;28;45419;-54
2022/08/14 09:12:40;;;;;;;;;5.00;5.00;;;;;28.05;34.19;99931.25;5036695;28;45322;-57
2022/08/14 09:15:08;;;;;;;;;4.00;4.00;;;;;28.33;34.15;99947.50;5035292;28;45998;-51
2022/08/14 09:17:34;;;;;;;;;6.20;4.60;;;;;28.48;34.08;99941.16;5035938;28;45312;-52
2022/08/14 09:19:59;;;;;;;;;5.50;5.50;;;;;28.52;34.03;99935.63;5036628;28;45326;-54
2022/08/14 09:22:25;;;;;;;;;6.75;6.75;;;;;28.43;33.22;99903.91;5034903;28;45305;-57
2022/08/14 09:24:51;;;;;;;;;6.00;6.00;;;;;28.60;33.53;99948.78;5035209;28;45559;-58
2022/08/14 09:27:16;;;;;;;;;5.25;5.00;;;;;28.63;33.30;99956.53;5035030;28;45446;-55
2022/08/14 09:29:42;;;;;;;;;5.25;5.25;;;;;28.69;33.57;99937.34;5036377;28;45360;-56
2022/08/14 09:32:07;;;;;;;;;6.00;5.00;;;;;28.85;33.19;99940.28;5035499;28;45575;-53
2022/08/14 09:34:41;;;;;;;;;8.00;7.25;;;;;29.04;33.08;99950.97;5035244;28;45558;-53
2022/08/14 09:37:25;;;;;;;;;7.40;6.20;;;;;29.13;32.91;99955.66;5035964;28;45295;-54
2022/08/14 09:40:06;;;;;;;;;8.80;6.60;;;;;29.07;33.21;99947.41;5028761;28;45650;-56
2022/08/14 09:42:56;;;;;;;;;8.20;6.80;;;;;28.93;33.15;99935.69;5054648;28;45893;-58
2022/08/14 09:45:48;;;;;;;;;6.00;6.00;;;;;28.96;32.60;99929.31;5033521;28;46172;-54
2022/08/14 09:48:18;;;;;;;;;9.00;8.00;;;;;29.15;33.31;99939.16;5034753;28;45478;-58
2022/08/14 09:50:47;;;;;;;;;7.00;6.00;;;;;29.21;32.98;99949.84;5016007;28;45372;-55
2022/08/14 09:53:15;;;;;;;;;7.00;7.00;;;;;29.42;32.60;99945.16;5028748;28;45745;-60
2022/08/14 09:55:41;;;;;;;;;5.00;5.00;;;;;29.49;32.93;99932.09;5034312;28;46650;-57
2022/08/14 09:58:16;;;;;;;;;7.25;7.25;;;;;29.67;32.36;99934.56;5035415;28;45210;-59
2022/08/14 10:00:49;;;;;;;;;4.00;4.00;;;;;29.79;32.33;99930.03;5034715;28;45266;-57
2022/08/14 10:03:34;;;;;;;;;5.60;5.60;;;;;29.65;32.35;99931.28;5035907;28;45221;-57
2022/08/14 10:06:18;;;;;;;;;8.60;8.60;;;;;29.61;32.79;99930.41;5035418;28;46786;-56
2022/08/14 10:08:46;;;;;;;;;5.80;5.20;;;;;29.72;32.94;99933.50;5035467;28;45366;-58
2022/08/14 10:11:22;;;;;;;;;5.20;5.20;;;;;29.68;32.68;99929.75;5035548;28;45209;-57
2022/08/14 10:13:53;;;;;;;;;6.40;5.80;;;;;29.67;31.86;99922.47;5035041;28;45256;-58
2022/08/14 10:16:20;;;;;;;;;3.80;3.80;;;;;29.82;32.29;99920.84;5035549;28;46834;-60
2022/08/14 10:18:49;;;;;;;;;5.80;5.80;;;;;29.85;32.10;99920.09;5035673;28;45364;-58
2022/08/14 10:21:16;;;;;;;;;4.20;4.20;;;;;29.92;31.57;99922.31;5034212;28;45535;-58
2022/08/14 10:23:46;;;;;;;;;6.40;6.40;;;;;29.72;32.22;99894.72;5035712;28;45457;-57
2022/08/14 10:26:15;;;;;;;;;6.00;5.00;;;;;29.85;31.49;99922.94;5034072;28;46587;-54
2022/08/14 10:28:46;;;;;;;;;6.60;5.80;;;;;29.63;31.82;99905.41;5034110;28;45484;-57
2022/08/14 10:31:33;;;;;;;;;5.20;5.00;;;;;29.76;31.41;99937.22;5034270;28;45258;-57
2022/08/14 10:34:06;;;;;;;;;1.60;1.00;;;;;29.74;31.55;99945.25;5035605;28;45346;-57
2022/08/14 10:36:40;;;;;;;;;5.20;4.40;;;;;29.74;31.33;99951.75;5035606;28;46038;-57
2022/08/14 10:39:16;;;;;;;;;5.40;4.20;;;;;29.74;31.32;99962.22;5017636;28;45313;-57
2022/08/14 10:41:42;;;;;;;;;7.80;6.20;;;;;29.82;30.91;99968.91;5035378;28;45251;-55
2022/08/14 10:44:13;;;;;;;;;5.80;5.80;;;;;29.74;30.91;99957.41;5037074;28;45196;-57
2022/08/14 10:47:01;;;;;;;;;5.60;5.60;;;;;29.85;31.26;99965.34;5037771;28;45441;-54
2022/08/14 10:49:27;;;;;;;;;5.00;5.00;;;;;29.82;31.83;99966.09;5037222;28;45275;-57
2022/08/14 10:52:05;;;;;;;;;6.75;6.75;;;;;29.74;31.72;99962.22;5039240;28;45263;-55
2022/08/14 10:54:38;;;;;;;;;6.60;6.00;;;;;29.75;32.31;99950.56;5038718;28;45618;-59
2022/08/14 10:57:20;;;;;;;;;3.20;3.00;;;;;29.82;31.58;99951.94;5038386;28;46518;-57
2022/08/14 10:59:46;;;;;;;;;6.20;6.00;;;;;29.88;31.63;99956.16;5038681;28;45453;-58
2022/08/14 11:02:26;;;;;;;;;5.20;5.20;;;;;29.83;32.37;99959.25;5038836;28;45300;-57
2022/08/14 11:05:13;;;;;;;;;5.60;5.60;;;;;29.82;32.67;99964.06;5039113;28;45351;-58
2022/08/14 11:07:55;;;;;;;;;6.00;6.00;;;;;29.87;32.12;99957.31;5070793;28;46058;-58
2022/08/14 11:10:22;;;;;;;;;4.80;4.80;;;;;29.86;32.05;99959.34;5038332;28;45301;-57
2022/08/14 11:12:52;;;;;;;;;5.00;5.00;;;;;29.84;32.10;99956.06;5037411;28;45705;-57
2022/08/14 11:15:19;;;;;;;;;5.00;5.00;;;;;29.89;32.16;99960.63;5037402;28;45400;-57
2022/08/14 11:17:45;;;;;;;;;6.00;6.00;;;;;29.79;32.36;99966.78;5036601;28;45547;-57
2022/08/14 11:20:12;;;;;;;;;8.40;7.20;;;;;29.48;32.95;99919.16;5037016;28;45431;-56
2022/08/14 11:22:40;;;;;;;;;5.80;5.80;;;;;29.81;32.37;99962.41;5038216;28;45357;-56
2022/08/14 11:25:06;;;;;;;;;6.80;6.80;;;;;29.80;33.11;99969.25;5038506;28;45352;-59
2022/08/14 11:27:32;;;;;;;;;8.00;7.00;;;;;29.81;33.04;99965.25;5037806;28;47024;-58
2022/08/14 11:30:05;;;;;;;;;5.00;5.00;;;;;29.61;32.91;99938.88;5037085;28;45330;-58
2022/08/14 11:32:30;;;;;;;;;7.00;6.00;;;;;29.58;32.70;99950.88;5037266;28;45282;-56
2022/08/14 11:34:57;;;;;;;;;9.50;8.00;;;;;29.59;32.92;99955.34;5038848;28;45257;-55
2022/08/14 11:37:23;;;;;;;;;7.00;6.00;;;;;29.40;33.38;99958.84;5037972;28;45564;-56
2022/08/14 11:39:48;;;;;;;;;9.25;9.25;;;;;29.30;33.21;99938.38;5038164;28;45263;-56
2022/08/14 11:42:23;;;;;;;;;8.00;7.00;;;;;29.57;33.50;99969.88;5037304;28;45353;-57
2022/08/14 11:44:51;;;;;;;;;7.60;6.40;;;;;29.62;33.27;99972.41;5037175;28;45539;-58
2022/08/14 11:47:18;;;;;;;;;5.80;5.80;;;;;29.64;33.14;99966.41;5036859;28;46395;-58
2022/08/14 11:49:47;;;;;;;;;7.40;6.80;;;;;29.59;34.33;99961.00;5037810;28;45437;-58
2022/08/14 11:52:14;;;;;;;;;6.00;6.00;;;;;29.59;34.37;99978.81;5037127;28;45373;-58